createdAt,value
2022-12-18T00:01:18.409Z,102851.22
2022-12-18T00:03:46.422Z,102847.91
2022-12-18T00:06:14.762Z,102851.56
2022-12-18T00:08:42.374Z,102858.41
2022-12-18T00:11:13.726Z,102859.97
2022-12-18T00:13:41.717Z,102863.47
2022-12-18T00:16:12.256Z,102869.69
2022-12-18T00:18:40.811Z,102871.38
2022-12-18T00:21:10.258Z,102857.78
2022-12-18T00:23:39.662Z,102852.03
2022-12-18T00:26:10.393Z,102852.03
2022-12-18T00:28:39.203Z,102851.22
2022-12-18T00:31:09.528Z,102860.91
2022-12-18T00:33:38.453Z,102873.44
2022-12-18T00:36:07.925Z,102866.09
2022-12-18T00:38:36.116Z,102859.75
2022-12-18T00:41:03.946Z,102858.41
2022-12-18T00:43:30.445Z,102865.56
2022-12-18T00:45:59.252Z,102872.81
2022-12-18T00:48:26.899Z,102857.81
2022-12-18T00:50:54.310Z,102853.66
2022-12-18T00:53:22.031Z,102860.66
2022-12-18T00:55:49.475Z,102847.66
2022-12-18T00:58:19.331Z,102846.31
2022-12-18T01:00:46.845Z,102852.84
2022-12-18T01:03:16.422Z,102854.81
2022-12-18T01:05:44.477Z,102856.31
2022-12-18T01:08:12.119Z,102853.50
2022-12-18T01:10:41.923Z,102858.94
2022-12-18T01:13:09.821Z,102865.50
2022-12-18T01:15:37.633Z,102875.31
2022-12-18T01:18:05.087Z,102879.78
2022-12-18T01:20:34.067Z,102870.84
2022-12-18T01:23:01.471Z,102881.56
2022-12-18T01:25:28.913Z,102888.38
2022-12-18T01:27:56.356Z,102886.16
2022-12-18T01:30:23.843Z,102890.72
2022-12-18T01:32:51.324Z,102882.72
2022-12-18T01:35:18.857Z,102894.63
2022-12-18T01:37:47.902Z,102894.41
2022-12-18T01:40:15.361Z,102896.59
2022-12-18T01:42:42.781Z,102893.09
2022-12-18T01:45:26.223Z,102893.03
2022-12-18T01:47:56.739Z,102899.91
2022-12-18T01:50:27.122Z,102890.31
2022-12-18T01:52:59.060Z,102892.13
2022-12-18T01:55:30.241Z,102887.63
2022-12-18T01:58:01.122Z,102893.56
2022-12-18T02:00:29.545Z,102897.06
2022-12-18T02:02:57.535Z,102899.19
2022-12-18T02:05:35.696Z,102900.13
2022-12-18T02:08:11.687Z,102896.38
2022-12-18T02:10:48.692Z,102888.69
2022-12-18T02:13:22.824Z,102896.34
2022-12-18T02:15:59.168Z,102901.09
2022-12-18T02:18:31.058Z,102896.06
2022-12-18T02:21:07.516Z,102907.78
2022-12-18T02:23:48.929Z,102901.44
2022-12-18T02:26:26.567Z,102895.28
2022-12-18T02:28:58.562Z,102898.75
2022-12-18T02:31:30.316Z,102903.63
2022-12-18T02:34:02.086Z,102914.94
2022-12-18T02:36:30.940Z,102920.56
2022-12-18T02:39:00.049Z,102914.84
2022-12-18T02:41:30.542Z,102918.94
2022-12-18T02:43:59.856Z,102928.50
2022-12-18T02:46:32.210Z,102934.47
2022-12-18T02:49:07.541Z,102929.91
2022-12-18T02:51:42.593Z,102924.09
2022-12-18T02:54:17.832Z,102943.56
2022-12-18T02:56:52.505Z,102940.59
2022-12-18T02:59:24.933Z,102925.59
2022-12-18T03:01:58.093Z,102919.72
2022-12-18T03:04:31.093Z,102921.63
2022-12-18T03:07:04.809Z,102923.13
2022-12-18T03:09:36.981Z,102921.13
2022-12-18T03:12:24.639Z,102938.88
2022-12-18T03:14:57.760Z,102945.28
2022-12-18T03:17:28.621Z,102939.63
2022-12-18T03:20:00.296Z,102935.69
2022-12-18T03:22:31.624Z,102932.13
2022-12-18T03:25:02.375Z,102931.66
2022-12-18T03:27:33.382Z,102929.66
2022-12-18T03:30:08.371Z,102922.84
2022-12-18T03:32:41.550Z,102931.72
2022-12-18T03:35:12.387Z,102928.50
2022-12-18T03:37:40.661Z,102923.66
2022-12-18T03:40:09.035Z,102921.03
2022-12-18T03:42:47.804Z,102914.78
2022-12-18T03:45:23.902Z,102918.03
2022-12-18T03:48:01.753Z,102923.97
2022-12-18T03:50:38.776Z,102935.25
2022-12-18T03:53:18.292Z,102929.94
2022-12-18T03:55:47.390Z,102939.50
2022-12-18T03:58:21.414Z,102925.69
2022-12-18T04:00:52.537Z,102931.34
2022-12-18T04:03:26.242Z,102939.81
2022-12-18T04:05:56.676Z,102940.56
2022-12-18T04:08:25.774Z,102936.34
2022-12-18T04:10:53.227Z,102934.13
2022-12-18T04:13:25.807Z,102937.09
2022-12-18T04:15:53.455Z,102932.19
2022-12-18T04:18:21.338Z,102937.84
2022-12-18T04:20:48.716Z,102963.19
2022-12-18T04:23:16.131Z,102962.16
2022-12-18T04:25:43.527Z,102960.63
2022-12-18T04:28:10.961Z,102960.09
2022-12-18T04:30:39.844Z,102942.88
2022-12-18T04:33:11.632Z,102946.28
2022-12-18T04:35:39.072Z,102964.63
2022-12-18T04:38:07.506Z,102955.84
2022-12-18T04:40:37.812Z,102964.38
2022-12-18T04:43:06.112Z,102963.00
2022-12-18T04:45:33.897Z,102965.47
2022-12-18T04:48:03.357Z,102949.97
2022-12-18T04:50:31.432Z,102954.25
2022-12-18T04:52:59.318Z,102949.72
2022-12-18T04:55:26.867Z,102947.91
2022-12-18T04:57:54.359Z,102945.78
2022-12-18T05:00:21.890Z,102946.59
2022-12-18T05:02:49.587Z,102972.22
2022-12-18T05:05:18.434Z,102967.75
2022-12-18T05:07:45.818Z,102987.38
2022-12-18T05:10:13.541Z,102980.09
2022-12-18T05:12:58.943Z,102982.78
2022-12-18T05:15:30.014Z,102989.81
2022-12-18T05:17:57.951Z,102995.13
2022-12-18T05:20:28.066Z,102996.56
2022-12-18T05:22:56.087Z,102997.47
2022-12-18T05:25:24.103Z,103002.41
2022-12-18T05:27:51.611Z,103004.84
2022-12-18T05:30:19.272Z,103010.72
2022-12-18T05:32:46.712Z,103009.84
2022-12-18T05:35:14.165Z,103004.31
2022-12-18T05:37:43.541Z,103017.22
2022-12-18T05:40:12.838Z,103014.13
2022-12-18T05:42:40.485Z,103009.94
2022-12-18T05:45:08.789Z,103010.56
2022-12-18T05:47:36.237Z,103008.66
2022-12-18T05:50:03.988Z,103006.25
2022-12-18T05:52:32.441Z,103016.50
2022-12-18T05:55:01.155Z,103012.47
2022-12-18T05:57:28.589Z,103008.59
2022-12-18T05:59:56.009Z,103019.75
2022-12-18T06:02:23.609Z,103016.56
2022-12-18T06:04:51.140Z,103015.75
2022-12-18T06:07:18.585Z,103023.22
2022-12-18T06:09:45.996Z,103020.22
2022-12-18T06:12:14.734Z,103024.41
2022-12-18T06:14:42.241Z,103021.94
2022-12-18T06:17:09.931Z,103023.06
2022-12-18T06:19:37.359Z,103029.50
2022-12-18T06:22:04.821Z,103021.50
2022-12-18T06:24:32.405Z,103021.78
2022-12-18T06:26:59.855Z,103023.72
2022-12-18T06:29:28.610Z,103026.09
2022-12-18T06:31:56.134Z,103038.13
2022-12-18T06:34:23.649Z,103038.72
2022-12-18T06:36:51.064Z,103048.63
2022-12-18T06:39:18.573Z,103055.25
2022-12-18T06:41:46.011Z,103058.31
2022-12-18T06:44:13.427Z,103058.00
2022-12-18T06:46:42.438Z,103065.41
2022-12-18T06:49:10.663Z,103060.31
2022-12-18T06:51:38.623Z,103074.84
2022-12-18T06:54:06.186Z,103077.66
2022-12-18T06:56:33.723Z,103093.69
2022-12-18T06:59:01.223Z,103098.03
2022-12-18T07:01:28.772Z,103103.34
2022-12-18T07:03:58.557Z,103093.88
2022-12-18T07:06:27.271Z,103082.97
2022-12-18T07:08:56.190Z,103070.81
2022-12-18T07:11:23.961Z,103066.38
2022-12-18T07:13:51.404Z,103070.78
2022-12-18T07:16:25.118Z,103074.91
2022-12-18T07:18:53.275Z,103081.59
2022-12-18T07:21:23.262Z,103072.91
2022-12-18T07:23:50.974Z,103075.59
2022-12-18T07:26:20.965Z,103074.56
2022-12-18T07:28:48.920Z,103075.78
2022-12-18T07:31:18.792Z,103078.25
2022-12-18T07:33:46.879Z,103076.41
2022-12-18T07:36:15.143Z,103087.78
2022-12-18T07:38:44.441Z,103076.94
2022-12-18T07:41:13.759Z,103078.25
2022-12-18T07:43:42.765Z,103080.72
2022-12-18T07:46:11.835Z,103083.44
2022-12-18T07:48:41.236Z,103072.91
2022-12-18T07:51:09.181Z,103069.94
2022-12-18T07:53:38.076Z,103071.56
2022-12-18T07:58:57.300Z,103074.13
2022-12-18T08:01:24.947Z,103072.91
2022-12-18T08:03:52.740Z,103080.63
2022-12-18T08:06:22.770Z,103091.41
2022-12-18T08:08:52.955Z,103080.94
2022-12-18T08:11:21.830Z,103092.31
2022-12-18T08:13:49.418Z,103096.88
2022-12-18T08:16:17.508Z,103080.97
2022-12-18T08:18:45.393Z,103092.81
2022-12-18T08:21:14.498Z,103103.47
2022-12-18T08:23:43.375Z,103109.16
2022-12-18T08:26:11.412Z,103108.13
2022-12-18T08:28:40.748Z,103106.72
2022-12-18T08:31:11.666Z,103090.53
2022-12-18T08:33:41.625Z,103095.09
2022-12-18T08:36:11.308Z,103104.19
2022-12-18T08:38:39.095Z,103104.16
2022-12-18T08:41:08.259Z,103106.25
2022-12-18T08:43:53.439Z,103108.59
2022-12-18T08:46:25.475Z,103107.28
2022-12-18T08:48:54.290Z,103107.72
2022-12-18T08:51:22.103Z,103113.25
2022-12-18T08:53:49.844Z,103121.69
2022-12-18T08:56:17.670Z,103127.19
2022-12-18T08:58:45.315Z,103126.31
2022-12-18T09:01:14.711Z,103132.88
2022-12-18T09:03:44.213Z,103127.03
2022-12-18T09:06:15.734Z,103134.91
2022-12-18T09:08:43.558Z,103131.16
2022-12-18T09:11:16.074Z,103137.00
2022-12-18T09:13:43.594Z,103139.66
2022-12-18T09:16:11.388Z,103144.03
2022-12-18T09:18:39.166Z,103140.16
2022-12-18T09:21:12.734Z,103142.25
2022-12-18T09:23:41.235Z,103138.91
2022-12-18T09:26:09.131Z,103137.25
2022-12-18T09:28:36.607Z,103127.50
2022-12-18T09:31:08.452Z,103144.03
2022-12-18T09:33:36.780Z,103142.97
2022-12-18T09:36:07.654Z,103141.94
2022-12-18T09:38:37.179Z,103144.63
2022-12-18T09:41:08.065Z,103140.44
2022-12-18T09:43:41.587Z,103124.22
2022-12-18T09:46:14.063Z,103136.53
2022-12-18T09:48:45.192Z,103125.09
2022-12-18T09:51:16.957Z,103118.13
2022-12-18T09:53:53.857Z,103114.84
2022-12-18T09:56:23.924Z,103105.38
2022-12-18T09:58:58.056Z,103085.50
2022-12-18T10:01:32.015Z,103080.44
2022-12-18T10:04:10.856Z,103076.50
2022-12-18T10:06:43.457Z,103071.13
2022-12-18T10:09:20.997Z,103049.63
2022-12-18T10:11:56.028Z,103070.13
2022-12-18T10:14:30.734Z,103049.63
2022-12-18T10:17:05.565Z,103050.28
2022-12-18T10:19:49.922Z,103057.06
2022-12-18T10:22:34.544Z,103069.69
2022-12-18T10:25:08.858Z,103061.94
2022-12-18T10:27:36.602Z,103068.72
2022-12-18T10:30:14.746Z,103078.16
2022-12-18T10:32:42.743Z,103073.47
2022-12-18T10:35:19.929Z,103068.19
2022-12-18T10:38:04.959Z,103060.97
2022-12-18T10:40:34.135Z,103055.88
2022-12-18T10:43:14.568Z,103060.78
2022-12-18T10:45:42.401Z,103053.72
2022-12-18T10:48:20.996Z,103054.44
2022-12-18T10:53:39.807Z,103039.16
2022-12-18T10:56:08.988Z,103033.44
2022-12-18T10:58:38.538Z,103033.84
2022-12-18T11:01:10.174Z,103034.56
2022-12-18T11:03:39.799Z,103023.34
2022-12-18T11:06:10.271Z,103030.03
2022-12-18T11:08:38.500Z,103020.31
2022-12-18T11:11:19.832Z,103024.00
2022-12-18T11:13:59.509Z,103025.47
2022-12-18T11:16:27.856Z,103036.22
2022-12-18T11:18:55.699Z,103031.13
2022-12-18T11:21:23.222Z,103036.56
2022-12-18T11:23:53.366Z,103030.31
2022-12-18T11:26:23.139Z,103030.38
2022-12-18T11:28:53.318Z,103023.44
2022-12-18T11:31:26.569Z,103027.44
2022-12-18T11:34:35.021Z,103016.13
2022-12-18T11:36:54.295Z,103021.78
2022-12-18T11:39:25.898Z,103020.84
2022-12-18T11:42:12.382Z,103029.00
2022-12-18T11:44:50.102Z,103031.59
2022-12-18T11:47:27.235Z,103043.91
2022-12-18T11:49:57.367Z,103048.53
2022-12-18T11:52:28.646Z,103045.66
2022-12-18T11:55:00.432Z,103051.78
2022-12-18T11:57:37.462Z,103052.31
2022-12-18T12:00:13.181Z,103061.66
2022-12-18T12:02:57.309Z,103063.31
2022-12-18T12:05:39.347Z,103061.47
2022-12-18T12:08:15.278Z,103061.81
2022-12-18T12:10:55.973Z,103059.19
2022-12-18T12:13:39.839Z,103070.09
2022-12-18T12:16:17.273Z,103064.94
2022-12-18T12:18:58.680Z,103071.69
2022-12-18T12:21:34.697Z,103062.00
2022-12-18T12:24:12.530Z,103059.63
2022-12-18T12:26:47.623Z,103064.63
2022-12-18T12:29:34.621Z,103079.78
2022-12-18T12:32:13.618Z,103076.16
2022-12-18T12:34:59.190Z,103079.63
2022-12-18T12:37:41.013Z,103089.75
2022-12-18T12:40:40.937Z,103074.22
2022-12-18T12:43:16.346Z,103074.13
2022-12-18T12:45:51.277Z,103087.50
2022-12-18T12:48:27.564Z,103070.03
2022-12-18T12:50:56.986Z,103067.59
2022-12-18T12:53:30.800Z,103053.19
2022-12-18T12:55:59.421Z,103036.72
2022-12-18T12:58:35.824Z,103031.56
2022-12-18T13:01:18.485Z,103031.44
2022-12-18T13:03:59.272Z,103025.22
2022-12-18T13:06:44.399Z,103029.09
2022-12-18T13:09:12.398Z,103013.50
2022-12-18T13:12:14.162Z,103028.00
2022-12-18T13:14:42.884Z,103038.72
2022-12-18T13:17:31.995Z,103034.44
2022-12-18T13:20:15.445Z,103031.56
2022-12-18T13:22:47.581Z,103027.59
2022-12-18T13:25:34.062Z,103034.25
2022-12-18T13:28:13.659Z,103030.31
2022-12-18T13:30:50.805Z,103029.88
2022-12-18T13:34:25.809Z,103023.34
2022-12-18T13:36:56.096Z,103017.06
2022-12-18T13:39:35.188Z,103012.06
2022-12-18T13:43:09.625Z,103026.84
2022-12-18T13:45:44.706Z,103015.75
2022-12-18T13:48:18.922Z,103003.81
2022-12-18T13:50:59.401Z,102991.00
2022-12-18T13:53:30.339Z,102996.03
2022-12-18T13:55:59.227Z,103003.19
2022-12-18T13:58:27.462Z,103003.00
2022-12-18T14:00:54.966Z,102991.41
2022-12-18T14:03:27.106Z,102981.13
2022-12-18T14:06:00.737Z,102972.38
2022-12-18T14:08:34.671Z,102983.38
2022-12-18T14:11:03.387Z,102980.91
2022-12-18T14:13:34.971Z,102989.50
2022-12-18T14:16:05.070Z,102981.69
2022-12-18T14:18:41.045Z,102989.19
2022-12-18T14:21:20.351Z,102981.81
2022-12-18T14:23:47.961Z,102973.50
2022-12-18T14:26:24.779Z,102965.03
2022-12-18T14:28:52.402Z,102968.69
2022-12-18T14:31:21.605Z,102957.38
2022-12-18T14:33:49.308Z,102950.00
2022-12-18T14:36:21.304Z,102947.75
2022-12-18T14:38:51.245Z,102942.63
2022-12-18T14:41:20.523Z,102934.59
2022-12-18T14:43:49.796Z,102942.50
2022-12-18T14:46:34.230Z,102933.84
2022-12-18T14:49:03.736Z,102920.03
2022-12-18T14:51:35.109Z,102915.94
2022-12-18T14:54:04.880Z,102922.28
2022-12-18T14:56:34.036Z,102914.97
2022-12-18T14:59:04.347Z,102923.19
2022-12-18T15:01:35.038Z,102934.22
2022-12-18T15:04:04.376Z,102944.53
2022-12-18T15:06:36.279Z,102951.56
2022-12-18T15:09:07.433Z,102959.69
2022-12-18T15:11:47.434Z,102957.16
2022-12-18T15:14:26.244Z,102965.84
2022-12-18T15:16:55.428Z,102969.31
2022-12-18T15:19:24.412Z,102961.03
2022-12-18T15:21:53.285Z,102958.94
2022-12-18T15:24:24.506Z,102962.03
2022-12-18T15:26:52.068Z,102953.13
2022-12-18T15:29:26.274Z,102953.03
2022-12-18T15:32:00.927Z,102950.97
2022-12-18T15:34:29.435Z,102954.16
2022-12-18T15:36:58.345Z,102958.13
2022-12-18T15:39:25.836Z,102964.22
2022-12-18T15:42:10.948Z,102967.47
2022-12-18T15:44:38.891Z,102973.06
2022-12-18T15:47:12.243Z,102974.06
2022-12-18T15:49:40.160Z,102969.78
2022-12-18T15:52:15.122Z,102960.59
2022-12-18T15:55:00.258Z,102958.06
2022-12-18T15:57:27.866Z,102959.84
2022-12-18T15:59:58.848Z,102961.06
2022-12-18T16:02:27.012Z,102954.56
2022-12-18T16:04:55.007Z,102957.59
2022-12-18T16:07:25.429Z,102965.31
2022-12-18T16:09:53.660Z,102943.28
2022-12-18T16:12:23.892Z,102955.75
2022-12-18T16:14:52.233Z,102942.66
2022-12-18T16:17:20.227Z,102943.06
2022-12-18T16:19:47.706Z,102950.41
2022-12-18T16:22:21.908Z,102949.06
2022-12-18T16:24:51.563Z,102944.78
2022-12-18T16:27:19.196Z,102946.44
2022-12-18T16:29:46.840Z,102942.50
2022-12-18T16:32:16.396Z,102939.50
2022-12-18T16:34:45.810Z,102937.63
2022-12-18T16:37:15.613Z,102935.81
2022-12-18T16:39:43.631Z,102923.13
2022-12-18T16:42:17.280Z,102923.25
2022-12-18T16:44:45.817Z,102916.56
2022-12-18T16:47:15.161Z,102925.09
2022-12-18T16:49:43.027Z,102926.44
2022-12-18T16:52:10.507Z,102934.69
2022-12-18T16:54:38.098Z,102925.53
2022-12-18T16:57:06.013Z,102931.38
2022-12-18T16:59:38.079Z,102932.44
2022-12-18T17:02:15.569Z,102927.47
2022-12-18T17:04:45.101Z,102923.56
2022-12-18T17:07:13.168Z,102932.50
2022-12-18T17:09:41.247Z,102939.09
2022-12-18T17:12:09.005Z,102935.75
2022-12-18T17:14:38.061Z,102936.72
2022-12-18T17:17:22.610Z,102934.78
2022-12-18T17:19:51.002Z,102935.38
2022-12-18T17:22:18.476Z,102934.53
2022-12-18T17:24:47.033Z,102928.28
2022-12-18T17:27:14.507Z,102931.09
2022-12-18T17:29:47.990Z,102925.94
2022-12-18T17:32:16.534Z,102919.47
2022-12-18T17:34:44.047Z,102930.31
2022-12-18T17:37:11.623Z,102934.63
2022-12-18T17:39:39.343Z,102933.84
2022-12-18T17:42:06.906Z,102938.19
2022-12-18T17:44:35.998Z,102934.31
2022-12-18T17:47:06.044Z,102927.59
2022-12-18T17:49:33.563Z,102924.75
2022-12-18T17:52:01.039Z,102920.03
2022-12-18T17:54:28.492Z,102911.25
2022-12-18T17:56:55.982Z,102912.63
2022-12-18T17:59:23.741Z,102898.88
2022-12-18T18:01:51.278Z,102901.94
2022-12-18T18:04:20.888Z,102893.38
2022-12-18T18:06:48.446Z,102890.13
2022-12-18T18:09:17.106Z,102893.59
2022-12-18T18:12:02.529Z,102890.50
2022-12-18T18:14:30.136Z,102886.53
2022-12-18T18:17:01.118Z,102885.09
2022-12-18T18:19:34.655Z,102875.59
2022-12-18T18:22:03.123Z,102869.94
2022-12-18T18:24:31.381Z,102870.88
2022-12-18T18:26:59.983Z,102872.88
2022-12-18T18:29:30.223Z,102869.63
2022-12-18T18:31:58.574Z,102851.53
2022-12-18T18:34:27.694Z,102843.00
2022-12-18T18:36:59.213Z,102852.53
2022-12-18T18:39:26.773Z,102846.41
2022-12-18T18:41:54.695Z,102846.47
2022-12-18T18:44:25.752Z,102847.34
2022-12-18T18:46:55.144Z,102838.84
2022-12-18T18:49:24.164Z,102832.25
2022-12-18T18:51:52.006Z,102834.00
2022-12-18T18:54:21.295Z,102836.22
2022-12-18T18:59:38.274Z,102817.81
2022-12-18T19:02:06.018Z,102809.81
2022-12-18T19:04:34.556Z,102809.00
2022-12-18T19:07:02.099Z,102816.69
2022-12-18T19:09:31.313Z,102796.88
2022-12-18T19:12:16.643Z,102800.22
2022-12-18T19:14:44.642Z,102807.00
2022-12-18T19:17:12.075Z,102789.50
2022-12-18T19:19:40.063Z,102790.97
2022-12-18T19:22:07.847Z,102784.41
2022-12-18T19:24:36.648Z,102782.97
2022-12-18T19:27:04.283Z,102782.41
2022-12-18T19:29:31.880Z,102769.88
2022-12-18T19:31:59.333Z,102772.97
2022-12-18T19:34:27.563Z,102777.50
2022-12-18T19:36:59.942Z,102782.84
2022-12-18T19:39:27.846Z,102777.34
2022-12-18T19:41:56.658Z,102782.81
2022-12-18T19:44:24.111Z,102784.50
2022-12-18T19:46:52.418Z,102784.63
2022-12-18T19:49:22.907Z,102785.91
2022-12-18T19:51:50.734Z,102783.59
2022-12-18T19:54:18.575Z,102776.44
2022-12-18T19:56:46.695Z,102778.66
2022-12-18T19:59:15.721Z,102783.09
2022-12-18T20:01:43.531Z,102790.91
2022-12-18T20:04:11.183Z,102783.88
2022-12-18T20:06:48.115Z,102778.66
2022-12-18T20:09:16.134Z,102777.94
2022-12-18T20:11:44.075Z,102773.50
2022-12-18T20:14:12.536Z,102757.50
2022-12-18T20:16:42.099Z,102758.56
2022-12-18T20:19:11.722Z,102746.31
2022-12-18T20:21:39.762Z,102742.09
2022-12-18T20:24:08.667Z,102735.09
2022-12-18T20:26:36.258Z,102724.13
2022-12-18T20:29:03.732Z,102730.22
2022-12-18T20:31:31.345Z,102740.41
2022-12-18T20:34:01.715Z,102739.31
2022-12-18T20:36:31.785Z,102729.41
2022-12-18T20:39:01.664Z,102725.31
2022-12-18T20:41:37.512Z,102733.75
2022-12-18T20:44:06.693Z,102728.31
2022-12-18T20:46:48.095Z,102726.19
2022-12-18T20:49:16.869Z,102725.25
2022-12-18T20:51:44.391Z,102719.78
2022-12-18T20:54:12.146Z,102724.91
2022-12-18T20:56:39.798Z,102724.91
2022-12-18T20:59:07.263Z,102724.53
2022-12-18T21:01:34.846Z,102723.25
2022-12-18T21:04:09.644Z,102702.94
2022-12-18T21:06:38.850Z,102716.75
2022-12-18T21:09:06.339Z,102724.66
2022-12-18T21:11:52.455Z,102725.69
2022-12-18T21:14:22.244Z,102716.59
2022-12-18T21:16:50.188Z,102710.81
2022-12-18T21:19:20.064Z,102710.47
2022-12-18T21:21:49.100Z,102705.84
2022-12-18T21:24:17.330Z,102698.91
2022-12-18T21:26:46.437Z,102690.56
2022-12-18T21:29:15.966Z,102695.00
2022-12-18T21:31:45.345Z,102701.22
2022-12-18T21:34:16.791Z,102699.38
2022-12-18T21:36:44.247Z,102712.75
2022-12-18T21:39:15.634Z,102707.69
2022-12-18T21:42:01.078Z,102716.50
2022-12-18T21:44:28.814Z,102709.41
2022-12-18T21:47:03.549Z,102710.84
2022-12-18T21:49:37.005Z,102719.72
2022-12-18T21:52:04.778Z,102709.66
2022-12-18T21:54:34.590Z,102715.53
2022-12-18T21:57:03.515Z,102704.59
2022-12-18T21:59:32.795Z,102708.59
2022-12-18T22:02:02.980Z,102707.13
2022-12-18T22:04:30.551Z,102692.03
2022-12-18T22:07:04.534Z,102691.69
2022-12-18T22:09:34.168Z,102699.63
2022-12-18T22:12:02.019Z,102686.34
2022-12-18T22:14:29.514Z,102689.66
2022-12-18T22:16:57.395Z,102694.06
2022-12-18T22:19:25.867Z,102668.78
2022-12-18T22:21:53.806Z,102654.75
2022-12-18T22:24:23.197Z,102660.25
2022-12-18T22:26:54.963Z,102669.19
2022-12-18T22:29:44.966Z,102666.69
2022-12-18T22:32:16.376Z,102658.34
2022-12-18T22:34:45.057Z,102657.94
2022-12-18T22:37:13.005Z,102647.03
2022-12-18T22:39:40.459Z,102620.72
2022-12-18T22:42:09.875Z,102631.09
2022-12-18T22:44:37.297Z,102624.25
2022-12-18T22:47:06.129Z,102606.66
2022-12-18T22:49:35.876Z,102599.94
2022-12-18T22:52:03.805Z,102589.94
2022-12-18T22:54:31.500Z,102583.00
2022-12-18T22:56:58.952Z,102560.53
2022-12-18T22:59:27.792Z,102578.13
2022-12-18T23:01:59.071Z,102583.28
2022-12-18T23:04:30.159Z,102585.22
2022-12-18T23:07:04.831Z,102583.50
2022-12-18T23:09:32.412Z,102581.69
2022-12-18T23:11:59.886Z,102575.50
2022-12-18T23:14:29.073Z,102566.91
2022-12-18T23:16:56.663Z,102563.97
2022-12-18T23:19:24.720Z,102568.66
2022-12-18T23:21:52.342Z,102558.63
2022-12-18T23:24:22.221Z,102551.84
2022-12-18T23:26:49.684Z,102553.94
2022-12-18T23:29:17.188Z,102543.25
2022-12-18T23:31:46.023Z,102545.88
2022-12-18T23:34:14.611Z,102551.50
2022-12-18T23:36:46.212Z,102536.56
2022-12-18T23:39:20.472Z,102552.03
2022-12-18T23:41:57.662Z,102537.19
2022-12-18T23:44:25.224Z,102533.88
2022-12-18T23:46:54.032Z,102524.63
2022-12-18T23:49:21.580Z,102518.78
2022-12-18T23:51:49.451Z,102505.63
2022-12-18T23:54:16.935Z,102525.22
2022-12-18T23:56:44.423Z,102499.34
2022-12-18T23:59:11.846Z,102495.97
